Terminal Aerodrome Forecast
Issued by NWS Boston, MA

Home | Current Version | Previous Version | Text Only | Print | Product List | Glossary On
Versions: 1 2 3 4 5 6 7 8 9 10 11 12 13 14 15 16 17 18 19 20 21 22 23 24 25 26
000
FTUS41 KBOX 050304 AAA
TAFPVD
TAF AMD
KPVD 050304Z 0503/0524 02010KT P6SM VCSH OVC009
     FM050800 02012G22KT 6SM -DZ BR VCSH OVC008
     FM051000 02013G24KT 6SM -DZ BR VCSH OVC008
     FM051300 03014G26KT 3SM -SHRADZ BR OVC008=

USA.gov is the U.S. government's official web portal to all federal, state and local government web resources and services.